createdAt,value
2018-01-28T00:04:26.303Z,35.30
2018-01-28T00:10:31.449Z,33.53
2018-01-28T00:16:36.698Z,33.43
2018-01-28T00:22:42.087Z,34.43
2018-01-28T00:28:47.210Z,35.70
2018-01-28T00:34:52.702Z,34.07
2018-01-28T00:40:57.944Z,33.93
2018-01-28T00:47:03.152Z,33.53
2018-01-28T00:53:08.307Z,30.50
2018-01-28T00:59:13.640Z,27.50
2018-01-28T01:05:18.886Z,24.57
2018-01-28T01:11:24.370Z,26.17
2018-01-28T01:17:29.677Z,37.13
2018-01-28T01:23:35.062Z,31.03
2018-01-28T01:29:40.377Z,27.33
2018-01-28T01:35:45.517Z,26.60
2018-01-28T01:41:50.828Z,27.10
2018-01-28T01:47:56.118Z,25.83
2018-01-28T01:54:01.556Z,27.00
2018-01-28T02:00:07.096Z,24.37
2018-01-28T02:06:12.651Z,27.57
2018-01-28T02:12:17.852Z,29.73
2018-01-28T02:18:23.030Z,30.30
2018-01-28T02:24:28.221Z,31.10
2018-01-28T02:30:33.420Z,36.63
2018-01-28T02:36:38.668Z,36.50
2018-01-28T02:42:43.971Z,41.67
2018-01-28T02:48:49.300Z,43.03
2018-01-28T02:54:54.779Z,31.73
2018-01-28T03:00:59.958Z,28.57
2018-01-28T03:07:05.146Z,29.63
2018-01-28T03:13:10.556Z,31.97
2018-01-28T03:19:15.675Z,31.17
2018-01-28T03:25:21.020Z,33.90
2018-01-28T03:31:26.286Z,38.67
2018-01-28T03:37:31.546Z,40.20
2018-01-28T03:43:36.651Z,31.63
2018-01-28T03:49:42.243Z,29.60
2018-01-28T03:55:47.660Z,29.83
2018-01-28T04:01:53.196Z,30.17
2018-01-28T04:07:58.864Z,29.53
2018-01-28T04:14:04.035Z,47.03
2018-01-28T04:20:09.582Z,44.93
2018-01-28T04:26:14.836Z,44.10
2018-01-28T04:32:20.258Z,45.43
2018-01-28T04:38:25.948Z,41.80
2018-01-28T04:44:31.498Z,39.83
2018-01-28T04:50:37.040Z,39.40
2018-01-28T04:56:42.521Z,33.37
2018-01-28T05:02:47.831Z,37.17
2018-01-28T05:08:53.466Z,35.23
2018-01-28T05:14:58.919Z,45.60
2018-01-28T05:21:04.440Z,51.57
2018-01-28T05:27:10.108Z,53.93
2018-01-28T05:33:15.410Z,57.73
2018-01-28T05:39:20.694Z,56.57
2018-01-28T05:45:25.951Z,49.03
2018-01-28T05:51:31.635Z,45.00
2018-01-28T05:57:37.117Z,41.60
2018-01-28T06:03:42.423Z,37.57
2018-01-28T06:09:47.726Z,39.73
2018-01-28T06:15:53.607Z,40.70
2018-01-28T06:21:59.310Z,40.13
2018-01-28T06:28:04.454Z,36.57
2018-01-28T06:34:09.888Z,34.03
2018-01-28T06:40:15.395Z,35.37
2018-01-28T06:46:20.506Z,36.90
2018-01-28T06:52:25.665Z,38.13
2018-01-28T06:58:31.222Z,44.20
2018-01-28T07:04:36.786Z,47.70
2018-01-28T07:10:42.069Z,48.77
2018-01-28T07:16:47.268Z,42.05
2018-01-28T07:22:52.706Z,76.35
2018-01-28T07:28:58.073Z,44.13
2018-01-28T07:35:03.913Z,43.80
2018-01-28T07:41:09.098Z,39.77
2018-01-28T07:47:14.461Z,34.27
2018-01-28T07:53:19.661Z,33.77
2018-01-28T07:59:24.880Z,43.17
2018-01-28T08:05:30.019Z,47.60
2018-01-28T08:11:36.157Z,31.93
2018-01-28T08:17:41.570Z,33.27
2018-01-28T08:23:46.990Z,35.00
2018-01-28T08:29:52.412Z,35.03
2018-01-28T08:35:57.775Z,30.20
2018-01-28T08:42:02.851Z,31.43
2018-01-28T08:48:08.217Z,28.87
2018-01-28T08:54:13.509Z,31.90
2018-01-28T09:00:18.646Z,37.13
2018-01-28T09:06:23.902Z,30.70
2018-01-28T09:12:29.362Z,30.53
2018-01-28T09:18:34.768Z,30.40
2018-01-28T09:24:39.922Z,33.37
2018-01-28T09:30:45.349Z,31.97
2018-01-28T09:36:50.708Z,31.07
2018-01-28T09:42:56.210Z,47.28
2018-01-28T17:55:34.401Z,83.37
2018-01-28T18:01:39.614Z,51.03
2018-01-28T18:07:45.283Z,44.53
2018-01-28T18:13:50.432Z,38.77
2018-01-28T18:19:55.781Z,49.33
2018-01-28T18:26:01.022Z,72.00
2018-01-28T18:32:06.058Z,96.43
2018-01-28T18:38:13.366Z,97.77
2018-01-28T18:44:19.000Z,70.00
2018-01-28T18:50:24.377Z,59.60
2018-01-28T18:56:29.683Z,80.17
2018-01-28T19:02:34.862Z,95.23
2018-01-28T19:08:40.135Z,47.80
2018-01-28T19:14:45.958Z,48.13
2018-01-28T19:20:51.265Z,47.97
2018-01-28T19:26:56.549Z,50.57
2018-01-28T19:33:01.793Z,47.20
2018-01-28T19:39:07.104Z,52.47
2018-01-28T19:45:12.327Z,44.33
2018-01-28T19:51:18.762Z,42.80
2018-01-28T19:57:24.400Z,46.57
2018-01-28T20:03:29.642Z,45.23
2018-01-28T20:09:34.871Z,45.73
2018-01-28T20:15:40.078Z,43.33
2018-01-28T20:21:45.212Z,42.63
2018-01-28T20:27:50.463Z,82.00
2018-01-28T20:33:57.717Z,89.73
2018-01-28T20:40:03.922Z,107.00
2018-01-28T20:46:09.162Z,54.20
2018-01-28T20:52:15.309Z,51.07
2018-01-28T20:58:20.399Z,60.07
2018-01-28T21:04:25.505Z,53.70
2018-01-28T21:10:30.773Z,55.37
2018-01-28T21:16:36.236Z,51.63
2018-01-28T21:22:41.308Z,55.70
2018-01-28T21:28:46.498Z,59.70
2018-01-28T21:34:51.867Z,56.77
2018-01-28T21:40:56.984Z,52.70
2018-01-28T21:47:02.069Z,48.23
2018-01-28T21:53:07.268Z,55.27
2018-01-28T21:59:12.389Z,58.53
2018-01-28T22:05:17.502Z,73.63
2018-01-28T22:11:22.680Z,74.13
2018-01-28T22:17:28.112Z,72.07
2018-01-28T22:23:33.418Z,69.60
2018-01-28T22:29:38.748Z,68.47
2018-01-28T22:35:43.750Z,63.33
2018-01-28T22:41:48.851Z,56.00
2018-01-28T22:47:53.918Z,51.90
2018-01-28T22:53:59.084Z,63.77
2018-01-28T23:00:04.345Z,55.30
2018-01-28T23:06:09.451Z,56.70
2018-01-28T23:12:14.963Z,64.43
2018-01-28T23:18:20.021Z,55.10
2018-01-28T23:24:25.282Z,52.90
2018-01-28T23:30:30.359Z,54.67
2018-01-28T23:36:35.412Z,59.40
2018-01-28T23:42:40.429Z,57.60
2018-01-28T23:48:45.714Z,58.43
2018-01-28T23:54:50.979Z,55.27
